createdAt,value
2016-11-16T00:01:02.575Z,0
2016-11-16T00:02:18.725Z,0
2016-11-16T00:03:35.224Z,0
2016-11-16T00:04:51.194Z,0
2016-11-16T00:06:07.492Z,0
2016-11-16T00:07:23.612Z,0
2016-11-16T00:08:38.791Z,0
2016-11-16T00:09:55.165Z,0
2016-11-16T00:11:09.440Z,0
2016-11-16T00:12:25.587Z,0
2016-11-16T00:13:40.408Z,0
2016-11-16T00:14:55.212Z,0
2016-11-16T00:16:10.041Z,0
2016-11-16T00:17:23.582Z,0
2016-11-16T00:18:39.890Z,0
2016-11-16T00:19:56.056Z,0
2016-11-16T00:21:12.850Z,0
2016-11-16T00:22:27.640Z,0
2016-11-16T00:23:42.083Z,0
2016-11-16T00:24:54.036Z,0
2016-11-16T00:26:06.264Z,0
2016-11-16T00:27:22.815Z,0
2016-11-16T00:28:39.068Z,0
2016-11-16T00:29:55.565Z,0
2016-11-16T00:31:12.597Z,0
2016-11-16T00:32:29.670Z,0
2016-11-16T00:33:46.136Z,0
2016-11-16T00:34:59.599Z,0
2016-11-16T00:36:14.314Z,0
2016-11-16T00:37:29.983Z,0
2016-11-16T00:38:45.746Z,0
2016-11-16T00:39:58.015Z,0
2016-11-16T00:41:11.132Z,0
2016-11-16T00:42:28.286Z,0
2016-11-16T00:43:42.238Z,0
2016-11-16T00:44:55.650Z,0
2016-11-16T00:46:09.135Z,0
2016-11-16T00:47:23.578Z,0
2016-11-16T00:48:39.558Z,0
2016-11-16T00:49:51.602Z,0
2016-11-16T00:51:08.108Z,0
2016-11-16T00:52:24.655Z,0
2016-11-16T00:53:39.503Z,0
2016-11-16T00:54:54.167Z,0
2016-11-16T00:56:08.199Z,0
2016-11-16T00:57:23.272Z,0
2016-11-16T00:58:38.268Z,0
2016-11-16T00:59:51.706Z,0
2016-11-16T01:01:08.588Z,0
2016-11-16T01:02:25.188Z,0
2016-11-16T01:03:40.012Z,0
2016-11-16T01:04:55.809Z,0
2016-11-16T01:06:12.085Z,0
2016-11-16T01:07:28.652Z,0
2016-11-16T01:08:44.398Z,0
2016-11-16T01:09:59.768Z,0
2016-11-16T01:11:12.957Z,0
2016-11-16T01:12:29.289Z,0
2016-11-16T01:13:44.158Z,0
2016-11-16T01:14:59.146Z,0
2016-11-16T01:16:13.571Z,0
2016-11-16T01:17:26.671Z,0
2016-11-16T01:18:41.500Z,0
2016-11-16T01:19:58.023Z,0
2016-11-16T01:21:12.664Z,0
2016-11-16T01:22:27.069Z,0
2016-11-16T01:23:42.522Z,0
2016-11-16T01:24:57.751Z,0
2016-11-16T01:26:14.744Z,0
2016-11-16T01:27:29.522Z,0
2016-11-16T01:28:46.069Z,0
2016-11-16T01:29:59.367Z,0
2016-11-16T01:31:15.756Z,0
2016-11-16T01:32:30.547Z,0
2016-11-16T01:33:44.917Z,0
2016-11-16T01:35:01.708Z,0
2016-11-16T01:36:15.126Z,0
2016-11-16T01:37:29.782Z,0
2016-11-16T01:38:46.548Z,0
2016-11-16T01:40:02.513Z,0
2016-11-16T01:41:17.989Z,0
2016-11-16T01:42:32.861Z,0
2016-11-16T01:43:47.627Z,0
2016-11-16T01:45:00.899Z,0
2016-11-16T01:46:15.258Z,0
2016-11-16T01:47:31.401Z,0
2016-11-16T01:48:45.146Z,0
2016-11-16T01:50:01.425Z,0
2016-11-16T01:51:15.785Z,0
2016-11-16T01:52:31.547Z,0
2016-11-16T01:53:46.376Z,0
2016-11-16T01:55:01.315Z,0
2016-11-16T01:56:15.916Z,0
2016-11-16T01:57:31.753Z,0
2016-11-16T01:58:46.697Z,0
2016-11-16T02:00:01.789Z,0
2016-11-16T02:01:17.551Z,0
2016-11-16T02:02:33.838Z,0
2016-11-16T02:03:50.233Z,0
2016-11-16T02:05:05.314Z,0
2016-11-16T02:06:18.260Z,0
2016-11-16T02:07:35.144Z,0
2016-11-16T02:08:48.277Z,0
2016-11-16T02:10:04.830Z,0
2016-11-16T02:11:19.261Z,0
2016-11-16T02:12:33.884Z,0
2016-11-16T02:13:46.925Z,0
2016-11-16T02:15:00.493Z,0
2016-11-16T02:16:15.084Z,0
2016-11-16T02:17:31.117Z,0
2016-11-16T02:18:44.300Z,0
2016-11-16T02:19:59.329Z,0
2016-11-16T02:21:14.429Z,0
2016-11-16T02:22:30.385Z,0
2016-11-16T02:23:45.053Z,0
2016-11-16T02:24:57.956Z,0
2016-11-16T02:26:14.124Z,0
2016-11-16T02:27:28.601Z,0
2016-11-16T02:28:43.220Z,0
2016-11-16T02:29:58.335Z,0
2016-11-16T02:31:14.671Z,0
2016-11-16T02:32:30.908Z,0
2016-11-16T02:33:46.632Z,0
2016-11-16T02:35:02.683Z,0
2016-11-16T02:36:17.033Z,0
2016-11-16T02:37:31.859Z,0
2016-11-16T02:38:44.949Z,0
2016-11-16T02:39:59.872Z,0
2016-11-16T02:41:16.044Z,0
2016-11-16T02:42:30.958Z,0
2016-11-16T02:43:45.765Z,0
2016-11-16T02:45:00.436Z,0
2016-11-16T02:46:17.057Z,0
2016-11-16T02:47:32.041Z,0
2016-11-16T02:48:47.524Z,0
2016-11-16T02:50:03.411Z,0
2016-11-16T02:51:18.004Z,0
2016-11-16T02:52:31.871Z,0
2016-11-16T02:53:48.682Z,0
2016-11-16T02:55:03.945Z,0
2016-11-16T02:56:17.162Z,0
2016-11-16T02:57:33.590Z,0
2016-11-16T02:58:48.154Z,0
2016-11-16T03:00:04.182Z,0
2016-11-16T03:01:21.315Z,0
2016-11-16T03:02:36.560Z,0
2016-11-16T03:03:49.827Z,0
2016-11-16T03:05:04.677Z,0
2016-11-16T03:06:19.744Z,0
2016-11-16T03:07:35.681Z,0
2016-11-16T03:08:51.745Z,0
2016-11-16T03:10:06.230Z,0
2016-11-16T03:11:18.911Z,0
2016-11-16T03:12:31.999Z,0
2016-11-16T03:13:48.386Z,0
2016-11-16T03:15:04.885Z,0
2016-11-16T03:16:18.409Z,0
2016-11-16T03:17:33.499Z,0
2016-11-16T03:18:49.733Z,0
2016-11-16T03:20:06.654Z,0
2016-11-16T03:21:23.548Z,0
2016-11-16T03:22:40.493Z,0
2016-11-16T03:23:57.182Z,0
2016-11-16T03:25:12.435Z,0
2016-11-16T03:26:27.778Z,0
2016-11-16T03:27:40.822Z,0
2016-11-16T03:28:55.663Z,0
2016-11-16T03:30:10.664Z,0
2016-11-16T03:31:25.824Z,0
2016-11-16T03:32:40.493Z,0
2016-11-16T03:33:56.949Z,0
2016-11-16T03:35:12.820Z,0
2016-11-16T03:36:29.153Z,0
2016-11-16T03:37:42.625Z,0
2016-11-16T03:38:58.385Z,0
2016-11-16T03:40:14.668Z,0
2016-11-16T03:41:29.717Z,0
2016-11-16T03:42:45.597Z,0
2016-11-16T03:44:02.045Z,0
2016-11-16T03:45:18.082Z,0
2016-11-16T03:46:34.529Z,0
2016-11-16T03:47:50.423Z,0
2016-11-16T03:49:03.458Z,0
2016-11-16T03:50:19.356Z,0
2016-11-16T03:51:34.171Z,0
2016-11-16T03:52:48.913Z,0
2016-11-16T03:54:04.816Z,0
2016-11-16T03:55:19.027Z,0
2016-11-16T03:56:35.324Z,0
2016-11-16T03:57:51.461Z,0
2016-11-16T03:59:07.383Z,0
2016-11-16T04:00:23.925Z,0
2016-11-16T04:01:39.030Z,0
2016-11-16T04:02:54.539Z,0
2016-11-16T04:04:10.455Z,0
2016-11-16T04:05:26.735Z,0
2016-11-16T04:06:40.596Z,0
2016-11-16T04:07:57.017Z,0
2016-11-16T04:09:13.823Z,0
2016-11-16T04:10:29.786Z,0
2016-11-16T04:11:45.525Z,0
2016-11-16T04:13:02.626Z,0
2016-11-16T04:14:18.754Z,0
2016-11-16T04:15:35.298Z,0
2016-11-16T04:16:49.835Z,0
2016-11-16T04:18:02.917Z,0
2016-11-16T04:19:17.436Z,0
2016-11-16T04:20:31.952Z,0
2016-11-16T04:21:48.239Z,0
2016-11-16T04:23:01.614Z,0
2016-11-16T04:24:17.985Z,0
2016-11-16T04:25:33.799Z,0
2016-11-16T04:26:49.857Z,0
2016-11-16T04:28:05.487Z,0
2016-11-16T04:29:18.853Z,0
2016-11-16T04:30:35.445Z,0
2016-11-16T04:31:51.976Z,0
2016-11-16T04:33:08.029Z,0
2016-11-16T04:34:22.822Z,0
2016-11-16T04:35:35.868Z,0
2016-11-16T04:36:50.773Z,0
2016-11-16T04:38:07.335Z,0
2016-11-16T04:39:23.602Z,0
2016-11-16T04:40:40.688Z,0
2016-11-16T04:41:55.664Z,0
2016-11-16T04:43:10.338Z,0
2016-11-16T04:44:26.854Z,0
2016-11-16T04:45:43.610Z,0
2016-11-16T04:47:00.087Z,0
2016-11-16T04:48:14.466Z,0
2016-11-16T04:49:30.975Z,0
2016-11-16T04:50:47.649Z,0
2016-11-16T04:52:04.338Z,0
2016-11-16T04:53:18.953Z,0
2016-11-16T04:54:35.236Z,0
2016-11-16T04:55:51.933Z,0
2016-11-16T04:57:07.568Z,0
2016-11-16T04:58:22.400Z,0
2016-11-16T04:59:38.989Z,0
2016-11-16T05:00:53.436Z,0
2016-11-16T05:02:06.880Z,0
2016-11-16T05:03:23.016Z,0
2016-11-16T05:04:36.575Z,0
2016-11-16T05:05:51.191Z,0
2016-11-16T05:07:06.294Z,0
2016-11-16T05:08:19.319Z,0
2016-11-16T05:09:36.144Z,0
2016-11-16T05:10:51.621Z,0
2016-11-16T05:12:08.436Z,0
2016-11-16T05:13:25.426Z,0
2016-11-16T05:14:42.197Z,0
2016-11-16T05:15:57.151Z,0
2016-11-16T05:17:12.791Z,0
2016-11-16T05:18:29.085Z,0
2016-11-16T05:19:44.237Z,0
2016-11-16T05:20:59.532Z,0
2016-11-16T05:22:12.346Z,0
2016-11-16T05:23:28.804Z,0
2016-11-16T05:24:43.607Z,0
2016-11-16T05:25:58.675Z,0
2016-11-16T05:27:11.916Z,0
2016-11-16T05:28:27.850Z,0
2016-11-16T05:29:44.737Z,0
2016-11-16T05:31:00.604Z,0
2016-11-16T05:32:15.269Z,0
2016-11-16T05:33:29.854Z,0
2016-11-16T05:34:44.559Z,0
2016-11-16T05:36:01.058Z,0
2016-11-16T05:37:15.624Z,0
2016-11-16T05:38:28.744Z,0
2016-11-16T05:39:44.226Z,0
2016-11-16T05:41:00.785Z,0
2016-11-16T05:42:17.763Z,0
2016-11-16T05:43:33.913Z,0
2016-11-16T05:44:50.356Z,0
2016-11-16T05:46:06.879Z,0
2016-11-16T05:47:23.115Z,0
2016-11-16T05:48:36.831Z,0
2016-11-16T05:49:49.746Z,0
2016-11-16T05:51:02.935Z,0
2016-11-16T05:52:17.824Z,0
2016-11-16T05:53:33.581Z,0
2016-11-16T05:54:47.930Z,0
2016-11-16T05:56:03.822Z,0
2016-11-16T05:57:18.895Z,0
2016-11-16T05:58:35.053Z,0
2016-11-16T05:59:52.187Z,0
2016-11-16T06:01:07.014Z,0
2016-11-16T06:02:22.146Z,0
2016-11-16T06:03:39.380Z,0
2016-11-16T06:04:52.720Z,0
2016-11-16T06:06:06.641Z,0
2016-11-16T06:07:21.493Z,0
2016-11-16T06:08:37.583Z,0
2016-11-16T06:09:52.089Z,0
2016-11-16T06:11:06.798Z,0
2016-11-16T06:12:23.145Z,0
2016-11-16T06:13:39.675Z,0
2016-11-16T06:14:55.566Z,0
2016-11-16T06:16:12.695Z,0
2016-11-16T06:17:29.516Z,0
2016-11-16T06:18:46.104Z,0
2016-11-16T06:20:02.870Z,0
2016-11-16T06:21:18.618Z,0
2016-11-16T06:22:33.426Z,0
2016-11-16T06:23:48.809Z,0
2016-11-16T06:25:05.758Z,0
2016-11-16T06:26:18.796Z,4
2016-11-16T06:27:35.245Z,4
2016-11-16T06:28:50.494Z,4
2016-11-16T06:30:06.973Z,4
2016-11-16T06:31:22.647Z,4
2016-11-16T06:32:37.450Z,8
2016-11-16T06:33:54.264Z,8
2016-11-16T06:35:10.559Z,12
2016-11-16T06:36:24.093Z,12
2016-11-16T06:37:40.602Z,16
2016-11-16T06:38:55.707Z,12
2016-11-16T06:40:11.846Z,16
2016-11-16T06:41:23.684Z,16
2016-11-16T06:42:38.597Z,16
2016-11-16T06:43:53.482Z,20
2016-11-16T06:45:08.678Z,28
2016-11-16T06:46:25.232Z,28
2016-11-16T06:47:41.392Z,36
2016-11-16T06:48:58.311Z,36
2016-11-16T06:50:13.558Z,40
2016-11-16T06:51:28.656Z,40
2016-11-16T06:52:43.404Z,40
2016-11-16T06:53:56.409Z,52
2016-11-16T06:55:12.660Z,60
2016-11-16T06:56:27.358Z,72
2016-11-16T06:57:43.915Z,80
2016-11-16T06:59:00.794Z,88
2016-11-16T07:00:16.991Z,100
2016-11-16T07:01:34.121Z,108
2016-11-16T07:02:50.159Z,128
2016-11-16T07:04:06.636Z,144
2016-11-16T07:05:22.913Z,168
2016-11-16T07:06:39.459Z,168
2016-11-16T07:07:55.521Z,172
2016-11-16T07:09:09.973Z,184
2016-11-16T07:10:26.247Z,216
2016-11-16T07:11:42.890Z,268
2016-11-16T07:12:59.485Z,300
2016-11-16T07:14:12.566Z,292
2016-11-16T07:15:29.375Z,284
2016-11-16T07:16:42.672Z,304
2016-11-16T07:17:57.215Z,332
2016-11-16T07:19:13.520Z,348
2016-11-16T07:20:29.742Z,328
2016-11-16T07:21:42.624Z,336
2016-11-16T07:22:58.689Z,340
2016-11-16T07:24:14.880Z,288
2016-11-16T07:25:29.950Z,308
2016-11-16T07:26:44.946Z,292
2016-11-16T07:28:01.067Z,272
2016-11-16T07:29:15.505Z,48
2016-11-16T07:30:32.370Z,288
2016-11-16T07:31:47.291Z,352
2016-11-16T07:33:02.007Z,340
2016-11-16T07:34:18.168Z,332
2016-11-16T07:35:32.636Z,320
2016-11-16T07:36:48.095Z,316
2016-11-16T07:38:04.044Z,280
2016-11-16T07:39:19.447Z,284
2016-11-16T07:40:35.928Z,332
2016-11-16T07:41:49.493Z,372
2016-11-16T07:43:05.555Z,396
2016-11-16T07:44:20.157Z,380
2016-11-16T07:45:33.638Z,348
2016-11-16T07:46:49.400Z,368
2016-11-16T07:48:05.604Z,348
2016-11-16T07:49:17.531Z,424
2016-11-16T07:50:33.939Z,408
2016-11-16T07:51:48.471Z,400
2016-11-16T07:53:02.287Z,412
2016-11-16T07:54:16.949Z,520
2016-11-16T07:55:31.723Z,472
2016-11-16T07:56:46.649Z,488
2016-11-16T07:58:00.409Z,472
2016-11-16T07:59:16.915Z,428
2016-11-16T08:00:31.599Z,440
2016-11-16T08:01:47.246Z,424
2016-11-16T08:03:01.612Z,560
2016-11-16T08:04:15.798Z,624
2016-11-16T08:05:30.468Z,584
2016-11-16T08:06:46.051Z,612
2016-11-16T08:08:01.312Z,652
2016-11-16T08:09:15.676Z,624
2016-11-16T08:10:30.508Z,664
2016-11-16T08:11:46.425Z,732
2016-11-16T08:13:00.195Z,656
2016-11-16T08:14:15.055Z,644
2016-11-16T08:15:30.624Z,660
2016-11-16T08:16:46.308Z,644
2016-11-16T08:18:01.558Z,704
2016-11-16T08:19:18.143Z,748
2016-11-16T08:20:32.628Z,732
2016-11-16T08:21:46.668Z,824
2016-11-16T08:23:02.018Z,860
2016-11-16T08:24:16.890Z,768
2016-11-16T08:25:33.756Z,904
2016-11-16T08:26:47.382Z,828
2016-11-16T08:28:02.480Z,868
2016-11-16T08:29:14.453Z,968
2016-11-16T08:30:29.786Z,1040
2016-11-16T08:31:44.886Z,1044
2016-11-16T08:32:58.490Z,928
2016-11-16T08:34:15.680Z,1008
2016-11-16T08:35:30.760Z,952
2016-11-16T08:36:46.110Z,908
2016-11-16T08:38:02.442Z,956
2016-11-16T08:39:18.571Z,780
2016-11-16T08:40:34.209Z,748
2016-11-16T08:41:44.834Z,892
2016-11-16T08:43:01.519Z,888
2016-11-16T08:44:16.397Z,920
2016-11-16T08:45:31.137Z,1168
2016-11-16T08:46:47.428Z,956
2016-11-16T08:48:03.735Z,764
2016-11-16T08:49:19.810Z,1104
2016-11-16T08:50:34.905Z,1460
2016-11-16T08:51:49.995Z,1060
2016-11-16T08:53:06.537Z,1436
2016-11-16T08:54:21.277Z,1304
2016-11-16T08:55:35.715Z,1492
2016-11-16T08:56:48.130Z,1264
2016-11-16T08:58:03.209Z,1248
2016-11-16T08:59:19.769Z,1440
2016-11-16T09:00:36.492Z,1388
2016-11-16T09:01:49.434Z,1304
2016-11-16T09:03:05.137Z,1108
2016-11-16T09:04:18.376Z,1016
2016-11-16T09:05:32.100Z,1020
2016-11-16T09:06:47.362Z,880
2016-11-16T09:08:01.707Z,984
2016-11-16T09:09:16.713Z,1016
2016-11-16T09:10:28.647Z,904
2016-11-16T09:11:43.602Z,712
2016-11-16T09:12:58.012Z,680
2016-11-16T09:14:12.538Z,784
2016-11-16T09:15:27.387Z,704
2016-11-16T09:16:42.471Z,768
2016-11-16T09:17:57.718Z,796
2016-11-16T09:19:11.295Z,816
2016-11-16T09:20:24.349Z,872
2016-11-16T09:21:37.644Z,1136
2016-11-16T09:22:54.192Z,984
2016-11-16T09:24:06.583Z,820
2016-11-16T09:25:23.339Z,900
2016-11-16T09:26:40.318Z,984
2016-11-16T09:27:56.401Z,1172
2016-11-16T09:29:11.622Z,1372
2016-11-16T09:30:25.185Z,1448
2016-11-16T09:31:40.204Z,1456
2016-11-16T09:32:53.083Z,1436
2016-11-16T09:34:09.244Z,1324
2016-11-16T09:35:21.171Z,1000
2016-11-16T09:36:37.274Z,776
2016-11-16T09:37:51.530Z,644
2016-11-16T09:39:07.181Z,656
2016-11-16T09:40:22.346Z,744
2016-11-16T09:41:36.999Z,884
2016-11-16T09:42:50.138Z,1012
2016-11-16T09:44:06.489Z,1180
2016-11-16T09:45:22.854Z,1336
2016-11-16T09:46:37.289Z,1324
2016-11-16T09:47:53.461Z,1476
2016-11-16T09:49:07.131Z,1852
2016-11-16T09:50:22.258Z,1732
2016-11-16T09:51:37.261Z,1564
2016-11-16T09:52:52.544Z,1380
2016-11-16T09:54:04.475Z,1644
2016-11-16T09:55:17.527Z,1520
2016-11-16T09:56:33.806Z,1032
2016-11-16T09:57:47.471Z,1256
2016-11-16T09:59:01.350Z,1328
2016-11-16T10:00:17.661Z,1496
2016-11-16T10:01:32.798Z,1936
2016-11-16T10:02:48.157Z,2028
2016-11-16T10:04:03.430Z,2508
2016-11-16T10:05:17.698Z,2316
2016-11-16T10:06:32.993Z,3052
2016-11-16T10:07:49.263Z,3048
2016-11-16T10:09:02.633Z,2288
2016-11-16T10:10:19.499Z,2684
2016-11-16T10:11:34.775Z,2132
2016-11-16T10:12:49.791Z,2232
2016-11-16T10:14:03.257Z,2440
2016-11-16T10:15:19.974Z,2660
2016-11-16T10:16:35.935Z,2980
2016-11-16T10:17:49.614Z,2732
2016-11-16T10:19:04.664Z,2520
2016-11-16T10:20:19.789Z,2820
2016-11-16T10:21:34.862Z,2528
2016-11-16T10:22:49.890Z,2064
2016-11-16T10:24:06.206Z,2328
2016-11-16T10:25:21.031Z,2116
2016-11-16T10:26:35.700Z,1800
2016-11-16T10:27:51.467Z,1980
2016-11-16T10:29:05.171Z,2468
2016-11-16T10:30:18.405Z,2912
2016-11-16T10:31:33.899Z,3860
2016-11-16T10:32:49.086Z,3792
2016-11-16T10:34:03.918Z,3072
2016-11-16T10:35:18.925Z,3456
2016-11-16T10:36:34.801Z,2788
2016-11-16T10:37:51.095Z,2028
2016-11-16T10:39:07.499Z,1788
2016-11-16T10:40:24.457Z,2288
2016-11-16T10:41:39.297Z,2012
2016-11-16T10:42:54.277Z,1812
2016-11-16T10:44:07.132Z,1692
2016-11-16T10:45:23.052Z,1956
2016-11-16T10:46:37.978Z,1428
2016-11-16T10:47:49.741Z,1240
2016-11-16T10:49:04.418Z,1268
2016-11-16T10:50:19.366Z,1708
2016-11-16T10:51:33.426Z,2124
2016-11-16T10:52:49.075Z,1784
2016-11-16T10:54:05.365Z,1772
2016-11-16T10:55:21.931Z,1868
2016-11-16T10:56:37.137Z,1992
2016-11-16T10:57:52.157Z,1732
2016-11-16T10:59:05.520Z,1800
2016-11-16T11:00:18.184Z,1448
2016-11-16T11:01:31.317Z,1464
2016-11-16T11:02:46.046Z,1288
2016-11-16T11:04:01.333Z,1592
2016-11-16T11:05:14.621Z,1876
2016-11-16T11:06:29.413Z,2100
2016-11-16T11:07:44.094Z,1984
2016-11-16T11:08:57.698Z,2100
2016-11-16T11:10:12.683Z,1928
2016-11-16T11:11:28.329Z,2268
2016-11-16T11:12:44.305Z,2196
2016-11-16T11:13:57.876Z,2220
2016-11-16T11:15:13.639Z,2536
2016-11-16T11:16:30.279Z,2484
2016-11-16T11:17:44.912Z,2116
2016-11-16T11:19:00.973Z,1936
2016-11-16T11:20:17.260Z,2416
2016-11-16T11:21:31.789Z,3600
2016-11-16T11:22:47.951Z,4000
2016-11-16T11:24:04.730Z,3036
2016-11-16T11:25:18.205Z,3240
2016-11-16T11:26:32.637Z,4176
2016-11-16T11:27:46.468Z,3736
2016-11-16T11:29:01.433Z,4168
2016-11-16T11:30:15.300Z,3748
2016-11-16T11:31:30.503Z,3744
2016-11-16T11:32:45.821Z,3576
2016-11-16T11:33:58.648Z,3744
2016-11-16T11:35:13.889Z,4108
2016-11-16T11:36:29.879Z,3944
2016-11-16T11:37:43.227Z,4320
2016-11-16T11:38:58.444Z,4232
2016-11-16T11:40:14.937Z,5464
2016-11-16T11:41:29.369Z,6680
2016-11-16T11:42:44.600Z,6392
2016-11-16T11:43:58.018Z,6344
2016-11-16T11:45:10.811Z,4876
2016-11-16T11:46:25.648Z,4860
2016-11-16T11:47:42.346Z,5336
2016-11-16T11:48:57.172Z,5580
2016-11-16T11:50:13.658Z,4196
2016-11-16T11:51:30.189Z,4268
2016-11-16T11:52:42.449Z,3844
2016-11-16T11:53:58.816Z,2528
2016-11-16T11:55:12.533Z,2024
2016-11-16T11:56:27.746Z,2612
2016-11-16T11:57:42.527Z,3032
2016-11-16T11:58:57.374Z,5200
2016-11-16T12:00:13.647Z,6164
2016-11-16T12:01:28.766Z,3512
2016-11-16T12:02:42.264Z,4252
2016-11-16T12:03:56.999Z,3316
2016-11-16T12:05:13.173Z,3292
2016-11-16T12:06:28.012Z,4340
2016-11-16T12:07:44.451Z,4412
2016-11-16T12:09:01.563Z,5336
2016-11-16T12:10:16.441Z,4188
2016-11-16T12:11:28.369Z,2844
2016-11-16T12:12:44.423Z,3276
2016-11-16T12:14:00.494Z,4164
2016-11-16T12:15:16.630Z,5320
2016-11-16T12:16:31.491Z,9900
2016-11-16T12:17:47.360Z,7228
2016-11-16T12:19:03.121Z,6512
2016-11-16T12:20:18.626Z,5048
2016-11-16T12:21:34.122Z,4516
2016-11-16T12:22:47.356Z,4576
2016-11-16T12:24:03.998Z,5664
2016-11-16T12:25:19.249Z,6980
2016-11-16T12:26:34.334Z,7040
2016-11-16T12:27:50.252Z,5480
2016-11-16T12:29:05.814Z,8540
2016-11-16T12:30:20.526Z,7084
2016-11-16T12:31:35.602Z,6872
2016-11-16T12:32:49.470Z,9720
2016-11-16T12:34:05.407Z,10432
2016-11-16T12:35:21.690Z,10288
2016-11-16T12:36:36.281Z,9244
2016-11-16T12:37:51.265Z,7116
2016-11-16T12:39:06.412Z,8840
2016-11-16T12:40:20.009Z,8232
2016-11-16T12:41:35.617Z,7920
2016-11-16T12:42:51.770Z,7668
2016-11-16T12:44:08.270Z,7976
2016-11-16T12:45:21.665Z,8888
2016-11-16T12:46:38.110Z,8012
2016-11-16T12:47:52.145Z,8088
2016-11-16T12:49:07.850Z,9316
2016-11-16T12:50:23.411Z,6404
2016-11-16T12:51:39.726Z,6108
2016-11-16T12:52:52.781Z,6992
2016-11-16T12:54:08.014Z,7484
2016-11-16T12:55:21.420Z,7964
2016-11-16T12:56:37.161Z,10184
2016-11-16T12:57:51.026Z,8872
2016-11-16T12:59:04.643Z,8736
2016-11-16T13:00:20.225Z,8192
2016-11-16T13:01:36.267Z,7468
2016-11-16T13:02:49.275Z,7292
2016-11-16T13:04:03.890Z,7604
2016-11-16T13:05:19.973Z,8252
2016-11-16T13:06:35.955Z,9476
2016-11-16T13:07:49.901Z,8096
2016-11-16T13:09:03.422Z,7968
2016-11-16T13:10:19.691Z,6916
2016-11-16T13:11:34.522Z,7492
2016-11-16T13:12:50.660Z,8292
2016-11-16T13:14:02.900Z,6776
2016-11-16T13:15:18.389Z,6700
2016-11-16T13:16:34.039Z,9520
2016-11-16T13:17:49.157Z,7808
2016-11-16T13:19:02.462Z,7740
2016-11-16T13:20:18.391Z,6132
2016-11-16T13:21:34.701Z,7376
2016-11-16T13:22:47.772Z,4572
2016-11-16T13:24:04.070Z,3792
2016-11-16T13:25:19.130Z,3612
2016-11-16T13:26:34.216Z,2416
2016-11-16T13:27:47.166Z,2240
2016-11-16T13:29:03.938Z,2064
2016-11-16T13:30:19.422Z,2016
2016-11-16T13:31:36.261Z,2376
2016-11-16T13:32:50.215Z,2496
2016-11-16T13:34:04.300Z,1480
2016-11-16T13:35:18.345Z,884
2016-11-16T13:36:34.616Z,940
2016-11-16T13:37:48.179Z,944
2016-11-16T13:39:03.029Z,1040
2016-11-16T13:40:17.053Z,1116
2016-11-16T13:41:32.982Z,1036
2016-11-16T13:42:47.291Z,996
2016-11-16T13:44:03.394Z,1044
2016-11-16T13:45:17.671Z,996
2016-11-16T13:46:31.482Z,920
2016-11-16T13:47:47.631Z,1012
2016-11-16T13:48:59.228Z,848
2016-11-16T13:50:13.756Z,824
2016-11-16T13:51:28.454Z,1360
2016-11-16T13:52:41.781Z,2136
2016-11-16T13:53:56.608Z,2380
2016-11-16T13:55:09.599Z,2188
2016-11-16T13:56:24.678Z,1868
2016-11-16T13:57:40.959Z,1936
2016-11-16T13:58:55.234Z,2000
2016-11-16T14:00:07.001Z,1924
2016-11-16T14:01:21.145Z,1896
2016-11-16T14:02:34.953Z,2324
2016-11-16T14:03:48.901Z,1996
2016-11-16T14:05:05.366Z,1764
2016-11-16T14:06:21.723Z,1764
2016-11-16T14:07:36.712Z,1744
2016-11-16T14:08:48.711Z,1668
2016-11-16T14:10:03.361Z,1672
2016-11-16T14:11:19.005Z,1656
2016-11-16T14:12:35.465Z,1612
2016-11-16T14:13:51.182Z,1592
2016-11-16T14:15:06.044Z,1572
2016-11-16T14:16:21.220Z,1588
2016-11-16T14:17:37.508Z,1640
2016-11-16T14:18:51.874Z,1604
2016-11-16T14:20:06.657Z,1632
2016-11-16T14:21:22.196Z,1632
2016-11-16T14:22:38.170Z,1616
2016-11-16T14:23:53.245Z,1612
2016-11-16T14:25:09.905Z,1588
2016-11-16T14:26:26.826Z,1588
2016-11-16T14:27:43.185Z,1568
2016-11-16T14:28:59.238Z,1552
2016-11-16T14:30:15.536Z,1552
2016-11-16T14:31:29.470Z,1564
2016-11-16T14:32:44.874Z,1620
2016-11-16T14:33:59.842Z,1660
2016-11-16T14:35:15.086Z,1692
2016-11-16T14:36:29.785Z,1692
2016-11-16T14:37:45.340Z,1688
2016-11-16T14:39:02.232Z,1700
2016-11-16T14:40:17.490Z,1740
2016-11-16T14:41:30.861Z,1768
2016-11-16T14:42:44.689Z,1748
2016-11-16T14:43:59.114Z,1716
2016-11-16T14:45:15.254Z,1664
2016-11-16T14:46:30.638Z,1728
2016-11-16T14:47:44.251Z,1616
2016-11-16T14:48:59.241Z,1728
2016-11-16T14:50:13.902Z,1676
2016-11-16T14:51:28.788Z,1676
2016-11-16T14:52:42.649Z,1580
2016-11-16T14:53:59.171Z,1536
2016-11-16T14:55:15.843Z,1464
2016-11-16T14:56:31.228Z,1400
2016-11-16T14:57:47.691Z,1348
2016-11-16T14:59:02.892Z,1256
2016-11-16T15:00:19.573Z,1176
2016-11-16T15:01:33.827Z,1092
2016-11-16T15:02:50.033Z,1016
2016-11-16T15:04:06.411Z,964
2016-11-16T15:05:21.385Z,908
2016-11-16T15:06:35.939Z,888
2016-11-16T15:07:50.362Z,844
2016-11-16T15:09:05.197Z,752
2016-11-16T15:10:19.871Z,656
2016-11-16T15:11:36.783Z,644
2016-11-16T15:12:53.163Z,564
2016-11-16T15:14:09.439Z,464
2016-11-16T15:15:22.816Z,452
2016-11-16T15:16:37.750Z,396
2016-11-16T15:17:50.663Z,328
2016-11-16T15:19:05.338Z,336
2016-11-16T15:20:18.645Z,320
2016-11-16T15:21:33.715Z,336
2016-11-16T15:22:49.051Z,332
2016-11-16T15:24:03.910Z,336
2016-11-16T15:25:17.367Z,320
2016-11-16T15:26:32.983Z,296
2016-11-16T15:27:49.067Z,276
2016-11-16T15:29:04.564Z,248
2016-11-16T15:30:16.499Z,232
2016-11-16T15:31:31.788Z,196
2016-11-16T15:32:47.065Z,148
2016-11-16T15:34:00.323Z,124
2016-11-16T15:35:17.055Z,88
2016-11-16T15:36:31.888Z,92
2016-11-16T15:37:46.098Z,76
2016-11-16T15:39:03.086Z,80
2016-11-16T15:40:14.676Z,60
2016-11-16T15:41:31.028Z,36
2016-11-16T15:42:47.261Z,36
2016-11-16T15:44:02.268Z,36
2016-11-16T15:45:16.729Z,40
2016-11-16T15:46:33.281Z,44
2016-11-16T15:47:49.573Z,36
2016-11-16T15:49:06.410Z,32
2016-11-16T15:50:21.065Z,28
2016-11-16T15:51:37.597Z,28
2016-11-16T15:52:53.751Z,24
2016-11-16T15:54:09.465Z,20
2016-11-16T15:55:25.651Z,16
2016-11-16T15:56:40.320Z,12
2016-11-16T15:57:54.507Z,12
2016-11-16T15:59:10.061Z,12
2016-11-16T16:00:24.935Z,4
2016-11-16T16:01:38.358Z,8
2016-11-16T16:02:52.012Z,4
2016-11-16T16:04:06.801Z,4
2016-11-16T16:05:23.800Z,0
2016-11-16T16:06:38.873Z,4
2016-11-16T16:07:54.388Z,4
2016-11-16T16:09:08.066Z,0
2016-11-16T16:10:22.859Z,0
2016-11-16T16:11:38.345Z,0
2016-11-16T16:12:50.281Z,0
2016-11-16T16:14:05.113Z,0
2016-11-16T16:15:20.071Z,4
2016-11-16T16:16:32.214Z,4
2016-11-16T16:17:45.931Z,0
2016-11-16T16:19:02.861Z,0
2016-11-16T16:20:16.135Z,0
2016-11-16T16:21:32.474Z,0
2016-11-16T16:22:47.765Z,0
2016-11-16T16:24:02.760Z,0
2016-11-16T16:25:19.349Z,0
2016-11-16T16:26:32.583Z,0
2016-11-16T16:27:45.970Z,0
2016-11-16T16:29:01.239Z,0
2016-11-16T16:30:14.398Z,0
2016-11-16T16:31:29.145Z,0
2016-11-16T16:32:42.676Z,0
2016-11-16T16:33:55.853Z,0
2016-11-16T16:35:11.283Z,0
2016-11-16T16:36:27.767Z,0
2016-11-16T16:37:42.476Z,0
2016-11-16T16:38:57.254Z,0
2016-11-16T16:40:12.372Z,0
2016-11-16T16:41:28.247Z,0
2016-11-16T16:42:41.572Z,0
2016-11-16T16:43:54.992Z,0
2016-11-16T16:45:07.114Z,0
2016-11-16T16:46:20.884Z,0
2016-11-16T16:47:37.794Z,0
2016-11-16T16:48:53.687Z,0
2016-11-16T16:50:08.775Z,0
2016-11-16T16:51:25.296Z,0
2016-11-16T16:52:40.369Z,0
2016-11-16T16:53:55.583Z,0
2016-11-16T16:55:10.518Z,0
2016-11-16T16:56:27.899Z,0
2016-11-16T16:57:42.570Z,0
2016-11-16T16:58:59.566Z,0
2016-11-16T17:00:14.253Z,0
2016-11-16T17:01:31.076Z,0
2016-11-16T17:02:46.297Z,0
2016-11-16T17:04:03.053Z,0
2016-11-16T17:05:18.535Z,0
2016-11-16T17:06:35.972Z,0
2016-11-16T17:07:52.307Z,0
2016-11-16T17:09:09.266Z,0
2016-11-16T17:10:24.382Z,0
2016-11-16T17:11:38.827Z,0
2016-11-16T17:12:54.229Z,0
2016-11-16T17:14:10.685Z,0
2016-11-16T17:15:25.520Z,0
2016-11-16T17:16:40.465Z,0
2016-11-16T17:17:55.393Z,0
2016-11-16T17:19:10.176Z,0
2016-11-16T17:20:23.730Z,0
2016-11-16T17:21:40.148Z,0
2016-11-16T17:22:56.860Z,0
2016-11-16T17:24:11.771Z,0
2016-11-16T17:25:26.880Z,0
2016-11-16T17:26:41.864Z,0
2016-11-16T17:27:59.038Z,0
2016-11-16T17:29:14.053Z,0
2016-11-16T17:30:28.472Z,0
2016-11-16T17:31:43.162Z,0
2016-11-16T17:32:58.101Z,0
2016-11-16T17:34:11.264Z,0
2016-11-16T17:35:26.032Z,0
2016-11-16T17:36:41.086Z,0
2016-11-16T17:37:54.805Z,0
2016-11-16T17:39:09.503Z,0